createdAt,value
2022-10-04T00:02:17.061Z,16.20
2022-10-04T00:06:25.115Z,14.30
2022-10-04T00:10:32.595Z,12.30
2022-10-04T00:14:37.506Z,12.07
2022-10-04T00:18:41.132Z,13.70
2022-10-04T00:22:46.091Z,12.77
2022-10-04T00:26:50.994Z,11.80
2022-10-04T00:31:13.152Z,11.87
2022-10-04T00:35:30.603Z,14.60
2022-10-04T00:39:35.484Z,11.43
2022-10-04T00:43:46.764Z,10.83
2022-10-04T00:47:58.034Z,13.20
2022-10-04T00:52:02.822Z,12.20
2022-10-04T00:56:08.458Z,12.10
2022-10-04T01:00:16.008Z,25.03
2022-10-04T01:04:45.029Z,16.77
2022-10-04T01:08:52.829Z,10.33
2022-10-04T01:13:01.064Z,12.07
2022-10-04T01:17:03.444Z,11.03
2022-10-04T01:21:19.982Z,8.27
2022-10-04T01:25:44.165Z,10.40
2022-10-04T01:29:45.258Z,10.70
2022-10-04T01:33:47.382Z,9.60
2022-10-04T01:37:48.567Z,7.50
2022-10-04T01:42:10.330Z,8.40
2022-10-04T01:46:18.386Z,9.03
2022-10-04T01:50:26.113Z,8.13
2022-10-04T01:54:42.847Z,11.13
2022-10-04T01:58:54.450Z,9.77
2022-10-04T02:03:02.488Z,7.63
2022-10-04T02:07:05.862Z,14.00
2022-10-04T02:11:07.379Z,8.90
2022-10-04T02:15:11.386Z,7.87
2022-10-04T02:19:14.384Z,7.50
2022-10-04T02:23:19.070Z,7.50
2022-10-04T02:27:31.027Z,6.63
2022-10-04T02:31:51.045Z,8.77
2022-10-04T02:35:52.353Z,7.67
2022-10-04T02:39:57.340Z,10.73
2022-10-04T02:44:27.027Z,6.47
2022-10-04T02:48:46.769Z,7.97
2022-10-04T02:52:51.763Z,35.27
2022-10-04T02:56:54.829Z,31.53
2022-10-04T03:00:58.969Z,7.57
2022-10-04T03:05:07.160Z,30.37
2022-10-04T03:09:08.791Z,15.70
2022-10-04T03:13:12.069Z,34.07
2022-10-04T03:17:15.513Z,40.50
2022-10-04T03:21:20.170Z,34.20
2022-10-04T03:25:30.694Z,36.73
2022-10-04T03:29:33.478Z,36.00
2022-10-04T03:33:34.852Z,78.03
2022-10-04T03:37:37.429Z,33.57
2022-10-04T03:41:41.752Z,11.40
2022-10-04T03:45:43.573Z,7.80
2022-10-04T03:49:50.640Z,5.80
2022-10-04T03:53:55.998Z,6.50
2022-10-04T03:57:58.787Z,6.47
2022-10-04T04:02:26.503Z,7.27
2022-10-04T04:06:46.865Z,7.10
2022-10-04T04:10:51.763Z,7.00
2022-10-04T04:14:53.649Z,16.13
2022-10-04T04:18:58.571Z,9.90
2022-10-04T04:23:03.321Z,11.63
2022-10-04T04:27:04.720Z,22.50
2022-10-04T04:31:09.690Z,8.00
2022-10-04T04:35:26.857Z,16.97
2022-10-04T04:39:43.929Z,6.57
2022-10-04T04:43:45.121Z,7.47
2022-10-04T04:47:49.722Z,5.50
2022-10-04T04:51:52.025Z,4.70
2022-10-04T04:56:03.759Z,6.70
2022-10-04T05:00:03.397Z,5.27
2022-10-04T05:04:07.784Z,5.20
2022-10-04T05:08:15.821Z,4.50
2022-10-04T05:12:20.807Z,4.73
2022-10-04T05:16:28.345Z,5.20
2022-10-04T05:20:30.889Z,5.10
2022-10-04T05:24:39.945Z,3.60
2022-10-04T05:28:41.404Z,3.97
2022-10-04T05:33:04.671Z,7.10
2022-10-04T05:37:24.884Z,5.60
2022-10-04T05:41:36.323Z,8.37
2022-10-04T05:45:37.702Z,5.87
2022-10-04T05:49:45.977Z,6.50
2022-10-04T05:53:49.303Z,7.30
2022-10-04T05:58:20.848Z,6.80
2022-10-04T06:02:32.162Z,5.70
2022-10-04T06:06:49.341Z,5.87
2022-10-04T06:11:03.726Z,7.00
2022-10-04T06:15:43.016Z,25.53
2022-10-04T06:20:20.173Z,25.67
2022-10-04T06:24:27.120Z,8.70
2022-10-04T06:28:35.320Z,10.00
2022-10-04T06:32:52.646Z,11.20
2022-10-04T06:37:17.635Z,11.67
2022-10-04T06:41:46.708Z,7.23
2022-10-04T06:46:04.120Z,6.87
2022-10-04T06:50:33.120Z,7.03
2022-10-04T06:55:01.804Z,9.33
2022-10-04T06:59:22.841Z,7.40
2022-10-04T07:03:27.818Z,7.77
2022-10-04T07:07:35.301Z,7.90
2022-10-04T07:11:46.799Z,6.67
2022-10-04T07:16:07.055Z,7.10
2022-10-04T07:20:30.457Z,7.03
2022-10-04T07:24:50.642Z,7.07
2022-10-04T07:29:14.043Z,10.20
2022-10-04T07:33:19.021Z,13.53
2022-10-04T07:37:21.627Z,15.40
2022-10-04T07:41:26.636Z,9.50
2022-10-04T07:45:34.537Z,10.07
2022-10-04T07:49:39.801Z,11.57
2022-10-04T07:53:52.658Z,11.60
2022-10-04T07:58:09.707Z,10.50
2022-10-04T08:02:35.527Z,8.90
2022-10-04T08:06:41.090Z,8.70
2022-10-04T08:10:58.704Z,10.00
2022-10-04T08:15:15.502Z,9.13
2022-10-04T08:19:29.250Z,9.37
2022-10-04T08:23:44.141Z,8.27
2022-10-04T08:28:16.805Z,11.70
2022-10-04T08:32:54.021Z,9.33
2022-10-04T08:37:02.472Z,9.97
2022-10-04T08:41:25.895Z,10.03
2022-10-04T08:45:47.766Z,8.87
2022-10-04T08:50:22.050Z,9.20
2022-10-04T08:54:55.075Z,7.73
2022-10-04T08:59:24.747Z,7.07
2022-10-04T09:03:43.160Z,8.70
2022-10-04T09:08:07.658Z,7.10
2022-10-04T09:12:29.380Z,10.80
2022-10-04T09:16:46.480Z,9.37
2022-10-04T09:21:00.823Z,5.63
2022-10-04T09:25:32.914Z,8.20
2022-10-04T09:29:52.717Z,11.40
2022-10-04T09:34:19.576Z,10.73
2022-10-04T09:38:39.987Z,9.90
2022-10-04T09:43:09.572Z,8.30
2022-10-04T09:47:14.582Z,6.53
2022-10-04T09:51:39.414Z,6.43
2022-10-04T09:56:03.994Z,7.07
2022-10-04T10:00:36.825Z,9.23
2022-10-04T10:05:07.539Z,10.77
2022-10-04T10:09:21.165Z,5.37
2022-10-04T10:13:42.897Z,6.23
2022-10-04T10:17:57.137Z,6.10
2022-10-04T10:22:22.345Z,4.70
2022-10-04T10:26:46.252Z,6.27
2022-10-04T10:31:05.110Z,6.17
2022-10-04T10:35:27.258Z,5.20
2022-10-04T10:39:47.871Z,5.77
2022-10-04T10:44:07.216Z,4.90
2022-10-04T10:48:18.660Z,6.07
2022-10-04T10:52:41.764Z,5.07
2022-10-04T10:57:08.266Z,5.40
2022-10-04T11:01:21.991Z,5.90
2022-10-04T11:05:29.606Z,6.40
2022-10-04T11:09:40.562Z,7.07
2022-10-04T11:14:20.896Z,7.10
2022-10-04T11:19:00.895Z,6.57
2022-10-04T11:23:31.034Z,6.63
2022-10-04T11:27:48.978Z,5.37
2022-10-04T11:32:18.243Z,6.80
2022-10-04T11:36:49.448Z,5.10
2022-10-04T11:40:57.477Z,9.80
2022-10-04T11:45:18.579Z,6.40
2022-10-04T11:49:38.610Z,6.23
2022-10-04T11:54:09.895Z,6.27
2022-10-04T11:58:31.596Z,5.23
2022-10-04T12:02:43.385Z,6.63
2022-10-04T12:07:22.310Z,12.40
2022-10-04T12:12:06.070Z,7.17
2022-10-04T12:16:29.672Z,5.53
2022-10-04T12:20:43.665Z,4.97
2022-10-04T12:24:58.762Z,6.10
2022-10-04T12:29:21.896Z,7.17
2022-10-04T12:33:33.817Z,6.20
2022-10-04T12:37:56.008Z,6.20
2022-10-04T12:42:10.952Z,4.47
2022-10-04T12:46:31.289Z,4.37
2022-10-04T12:50:45.389Z,6.80
2022-10-04T12:55:11.378Z,8.50
2022-10-04T12:59:34.035Z,8.23
2022-10-04T13:03:56.358Z,7.33
2022-10-04T13:08:19.753Z,6.20
2022-10-04T13:12:37.757Z,6.37
2022-10-04T13:21:05.193Z,7.50
2022-10-04T13:25:10.569Z,5.90
2022-10-04T13:29:18.607Z,4.77
2022-10-04T13:33:26.551Z,5.87
2022-10-04T13:37:35.171Z,5.53
2022-10-04T13:41:53.385Z,5.57
2022-10-04T13:46:13.886Z,6.50
2022-10-04T13:50:21.835Z,4.07
2022-10-04T13:54:51.325Z,6.33
2022-10-04T13:59:02.506Z,6.10
2022-10-04T14:03:10.604Z,5.60
2022-10-04T14:07:24.866Z,7.07
2022-10-04T14:11:48.388Z,5.90
2022-10-04T14:16:14.755Z,6.20
2022-10-04T14:20:49.028Z,4.73
2022-10-04T14:25:17.554Z,6.20
2022-10-04T14:29:46.493Z,5.83
2022-10-04T14:34:06.530Z,4.70
2022-10-04T14:38:31.078Z,4.37
2022-10-04T14:42:53.690Z,6.20
2022-10-04T14:47:16.370Z,5.53
2022-10-04T14:51:42.400Z,4.93
2022-10-04T14:55:56.909Z,6.50
2022-10-04T15:00:08.071Z,5.03
2022-10-04T15:04:28.030Z,5.27
2022-10-04T15:08:38.919Z,4.77
2022-10-04T15:13:12.382Z,5.90
2022-10-04T15:17:12.749Z,5.20
2022-10-04T15:21:41.888Z,5.70
2022-10-04T15:25:47.512Z,5.53
2022-10-04T15:30:12.294Z,5.23
2022-10-04T15:34:43.559Z,4.80
2022-10-04T15:38:58.518Z,10.20
2022-10-04T15:43:12.611Z,10.57
2022-10-04T15:47:44.935Z,6.50
2022-10-04T15:52:00.696Z,5.63
2022-10-04T15:56:08.446Z,7.13
2022-10-04T16:00:22.223Z,5.97
2022-10-04T16:05:02.812Z,4.60
2022-10-04T16:09:17.164Z,4.63
2022-10-04T16:13:37.259Z,6.63
2022-10-04T16:17:55.539Z,4.73
2022-10-04T16:22:21.806Z,4.30
2022-10-04T16:26:26.714Z,8.10
2022-10-04T16:30:40.806Z,5.57
2022-10-04T16:34:51.867Z,7.43
2022-10-04T16:39:15.401Z,8.20
2022-10-04T16:43:20.551Z,8.30
2022-10-04T16:47:37.026Z,10.57
2022-10-04T16:51:44.949Z,6.47
2022-10-04T16:55:59.499Z,9.33
2022-10-04T17:00:21.619Z,6.10
2022-10-04T17:04:40.718Z,8.47
2022-10-04T17:08:49.327Z,8.50
2022-10-04T17:13:25.475Z,11.43
2022-10-04T17:18:05.454Z,6.80
2022-10-04T17:22:16.636Z,15.03
2022-10-04T17:26:30.657Z,7.70
2022-10-04T17:30:48.104Z,11.10
2022-10-04T17:35:19.132Z,6.90
2022-10-04T17:39:39.553Z,7.80
2022-10-04T17:43:55.127Z,7.80
2022-10-04T17:48:24.929Z,11.83
2022-10-04T17:52:52.690Z,11.43
2022-10-04T17:57:04.422Z,10.20
2022-10-04T18:01:31.113Z,9.43
2022-10-04T18:05:54.376Z,8.00
2022-10-04T18:09:59.349Z,8.33
2022-10-04T18:14:07.394Z,17.83
2022-10-04T18:18:18.393Z,8.50
2022-10-04T18:22:24.606Z,9.87
2022-10-04T18:26:29.209Z,7.40
2022-10-04T18:30:30.698Z,7.67
2022-10-04T18:34:31.833Z,8.53
2022-10-04T18:38:34.402Z,6.97
2022-10-04T18:42:37.848Z,11.00
2022-10-04T18:46:43.099Z,7.90
2022-10-04T18:50:46.315Z,9.10
2022-10-04T18:54:56.873Z,7.00
2022-10-04T18:59:31.614Z,15.13
2022-10-04T19:03:42.612Z,16.73
2022-10-04T19:08:22.847Z,13.27
2022-10-04T19:12:36.980Z,9.30
2022-10-04T19:16:51.353Z,15.53
2022-10-04T19:20:56.342Z,9.70
2022-10-04T19:25:19.994Z,14.43
2022-10-04T19:29:33.853Z,9.13
2022-10-04T19:33:44.633Z,8.23
2022-10-04T19:38:25.010Z,13.73
2022-10-04T19:42:50.786Z,12.93
2022-10-04T19:47:17.304Z,11.30
2022-10-04T19:51:37.698Z,13.37
2022-10-04T19:56:00.235Z,12.70
2022-10-04T20:04:14.660Z,11.03
2022-10-04T20:08:19.737Z,11.40
2022-10-04T20:12:32.137Z,12.33
2022-10-04T20:16:50.182Z,12.10
2022-10-04T20:20:59.362Z,10.90
2022-10-04T20:25:00.646Z,7.27
2022-10-04T20:29:02.435Z,11.63
2022-10-04T20:33:03.637Z,11.10
2022-10-04T20:37:07.635Z,7.20
2022-10-04T20:41:32.840Z,10.50
2022-10-04T20:45:37.883Z,7.27
2022-10-04T20:49:40.918Z,8.70
2022-10-04T20:53:44.722Z,6.60
2022-10-04T20:57:45.928Z,10.50
2022-10-04T21:02:03.599Z,8.87
2022-10-04T21:06:08.956Z,7.80
2022-10-04T21:10:19.317Z,9.90
2022-10-04T21:14:26.065Z,9.70
2022-10-04T21:18:27.254Z,8.80
2022-10-04T21:22:31.547Z,12.03
2022-10-04T21:26:34.622Z,7.87
2022-10-04T21:30:35.822Z,7.40
2022-10-04T21:34:53.813Z,8.63
2022-10-04T21:38:39.906Z,10.20
2022-10-04T21:42:41.094Z,7.80
2022-10-04T21:46:42.306Z,8.80
2022-10-04T21:50:43.865Z,7.30
2022-10-04T21:54:45.265Z,13.30
2022-10-04T21:58:46.468Z,9.50
2022-10-04T22:02:47.890Z,8.53
2022-10-04T22:06:49.631Z,13.00
2022-10-04T22:10:55.440Z,10.50
2022-10-04T22:14:53.877Z,7.17
2022-10-04T22:18:55.165Z,10.50
2022-10-04T22:22:57.974Z,9.13
2022-10-04T22:27:00.007Z,7.60
2022-10-04T22:31:01.875Z,9.10
2022-10-04T22:35:15.850Z,6.93
2022-10-04T22:39:19.176Z,8.83
2022-10-04T22:43:20.709Z,11.27
2022-10-04T22:47:23.701Z,9.17
2022-10-04T22:51:31.307Z,11.73
2022-10-04T22:55:33.794Z,8.63
2022-10-04T22:59:41.199Z,13.00
2022-10-04T23:03:48.083Z,10.40
2022-10-04T23:07:49.327Z,11.47
2022-10-04T23:11:50.507Z,11.20
2022-10-04T23:15:54.049Z,10.50
2022-10-04T23:20:02.999Z,9.90
2022-10-04T23:24:19.849Z,11.10
2022-10-04T23:28:21.804Z,8.23
2022-10-04T23:32:25.667Z,8.40
2022-10-04T23:36:27.944Z,7.77
2022-10-04T23:40:29.290Z,11.97
2022-10-04T23:44:36.617Z,7.53
2022-10-04T23:48:39.669Z,7.30
2022-10-04T23:52:41.029Z,7.80
2022-10-04T23:56:45.030Z,7.73
